Meteo Giornale » Osservazioni meteo Kazakhstan » Karaganda
ore: 01:30 - Osservazioni Meteo Karaganda
Lat. 49° 40' N Lon. 73° 20' E Alt. 538 metri s.l.m.
-5 °C
Sereno
Temp. 24 Ore
-5 °C
15 °C
Nord
0 Km/h
Dew point -8 °C
Umidità 79 %
Visibilità 10 Km
Il sole sorge alle ore 05:22
Il sole tramonta alle ore 18:51
| Data e Ora | Cielo e Fenomeni | T °C | DP °C | Um. % | Pres. hPa | Vis. km | Vento km/h | |
|---|---|---|---|---|---|---|---|---|
| Oggi h: 01:30 | Sereno | -5 | -8 | 79 | 1019 | 10 | N 0 | |
| Oggi h: 01:00 | Sereno | -2 | -8 | 63 | 1019 | 10 | N 0 | |
| Oggi h: 00:30 | Sereno | -2 | -8 | 63 | 1019 | 10 | N 3.6 | |
| Oggi h: 00:00 | Sereno | 0 | -7 | 59 | 1019 | 10 | N 3.6 | |
| Ieri h: 23:30 | Sereno | 1 | -7 | 55 | 1019 | 10 | N 7.2 | |
| Ieri h: 23:00 | Sereno | 2 | -5 | 59 | 1019 | 10 | N 7.2 | |
| Ieri h: 22:30 | Sereno | 1 | -6 | 59 | 1019 | 10 | N 7.2 | |
| Ieri h: 22:00 | Sereno | 1 | -7 | 55 | 1019 | 10 | N 7.2 | |
| Ieri h: 21:30 | Sereno | 2 | -6 | 55 | 1018 | 10 | N 7.2 | |
| Ieri h: 21:00 | Sereno | 5 | -5 | 48 | 1018 | 10 | N 3.6 | |
| Ieri h: 20:30 | Sereno | 6 | -5 | 45 | 1018 | 10 | N 7.2 | |
| Ieri h: 20:00 | Sereno | 6 | -5 | 45 | 1018 | 10 | N/NO 10.8 | |
| Ieri h: 19:30 | Sereno | 7 | -5 | 42 | 1017 | 10 | N 10.8 | |
| Ieri h: 19:00 | Sereno | 10 | -5 | 34 | 1017 | 10 | N 14.4 | |
| Ieri h: 18:30 | Sereno | 11 | -5 | 32 | 1016 | 10 | N/NO 18 | |
| Ieri h: 18:00 | Sereno | 12 | -5 | 30 | 1016 | 10 | N 21.6 | |
| Ieri h: 17:30 | Sereno | 12 | -5 | 30 | 1016 | 10 | N 18 | |
| Ieri h: 17:00 | Sereno | 12 | -5 | 30 | 1015 | 10 | N 21.6 | |
| Ieri h: 16:30 | Sereno | 12 | -5 | 30 | 1015 | 10 | N 18 | |
| Ieri h: 16:00 | Sereno | 13 | -4 | 30 | 1015 | 10 | N 18 | |
| Ieri h: 15:30 | Sereno | 13 | -4 | 30 | 1015 | 10 | N 18 | |
| Ieri h: 15:00 | Sereno | 13 | -4 | 30 | 1014 | 10 | N 14.4 | |
| Ieri h: 14:30 | Sereno | 15 | -2 | 30 | 1014 | 10 | N 21.6 | |
| Ieri h: 14:00 | Sereno | 13 | -3 | 32 | 1014 | 10 | N 25.2 | |
| Ieri h: 13:30 | Sereno | 15 | -3 | 28 | 1014 | 10 | N 21.6 | |
| Ieri h: 13:00 | Sereno | 13 | -3 | 32 | 1014 | 10 | N 25.2 | |
| Ieri h: 12:30 | Sereno | 13 | -2 | 35 | 1014 | 10 | N/NE 25.2 | |
| Ieri h: 12:00 | Sereno | 13 | -1 | 37 | 1014 | 10 | N 25.2 | |
| Ieri h: 11:30 | Sereno | 12 | -1 | 40 | 1014 | 10 | N/NE 28.8 | |
| Ieri h: 11:00 | Nuvoloso | 12 | -1 | 40 | 1013 | 10 | N/NE 28.8 | |
| Ieri h: 10:30 | Sereno | 13 | 0 | 40 | 1013 | 10 | N/NE 28.8 | |
| Ieri h: 10:00 | Sereno | 13 | 1 | 43 | 1014 | 10 | NE 28.8 | |
| Ieri h: 09:30 | Sereno | 12 | 1 | 46 | 1014 | 10 | NE 28.8 | |
| Ieri h: 09:00 | Sereno | 11 | 1 | 50 | 1014 | 10 | NE 25.2 | |
| Ieri h: 08:30 | Sereno | 10 | 1 | 53 | 1014 | 10 | E/NE 25.2 | |
| Ieri h: 08:00 | Sereno | 9 | 2 | 61 | 1014 | 10 | E/NE 18 | |
| Ieri h: 07:30 | Sereno | 7 | 4 | 81 | 1014 | 10 | NE 18 | |
| Ieri h: 07:00 | Sereno | 6 | 4 | 86 | 1013 | 10 | E/NE 14.4 | |
| Ieri h: 06:30 | Sereno | 5 | 4 | 93 | 1013 | 10 | E/NE 14.4 | |
| Ieri h: 06:00 | Sereno | 4 | 3 | 93 | 1013 | 10 | E/NE 14.4 | |
| Ieri h: 05:30 | Sereno | 4 | 3 | 93 | 1013 | 10 | E/NE 18 | |
| Ieri h: 05:00 | Sereno | 5 | 4 | 93 | 1013 | 10 | NE 18 | |
| Ieri h: 04:30 | Sereno | 3 | 3 | 100 | 1013 | 10 | NE 10.8 | |
| Ieri h: 04:00 | Sereno | 2 | 2 | 100 | 1013 | 10 | E/NE 10.8 | |
| Ieri h: 03:30 | Sereno | 2 | 1 | 93 | 1013 | 10 | E 10.8 | |
| Ieri h: 03:00 | Sereno | 2 | 1 | 93 | 1013 | 9 | N 7.2 | |
| Ieri h: 02:30 | Nebbia | 2 | 1 | 93 | 1014 | 9 | E/NE 10.8 | |
| Ieri h: 02:00 | Nebbia | 4 | 4 | 100 | 1013 | 9 | NE 10.8 | |



